Time;durP1;ratioP1;P1;durP2;ratioP2;P2;SDS_P1;SDS_P2;PMS_P1;PMS_P2;Temp;Humidity;BMP_temperature;BMP_pressure;BME280_temperature;BME280_humidity;BME280_pressure;Samples;Min_cycle;Max_cycle;Signal;HPM_P1;HPM_P2
2022/12/01 00:01:25;;;;;;;48.23;19.97;;;;;;;4.62;100.00;102596.84;4990822;28;20030;-89
2022/12/01 00:03:50;;;;;;;49.73;19.47;;;;;;;4.59;100.00;102591.06;4990156;28;20034;-89
2022/12/01 00:06:20;;;;;;;42.17;18.60;;;;;;;4.60;100.00;102593.53;4989652;28;20081;-89
2022/12/01 00:11:32;;;;;;;49.22;19.60;;;;;;;4.64;100.00;102597.50;4992303;28;20177;-89
2022/12/01 00:13:57;;;;;;;51.60;20.00;;;;;;;4.65;100.00;102598.34;4995052;28;20050;-89
2022/12/01 00:16:23;;;;;;;50.70;19.63;;;;;;;4.62;100.00;102593.38;5072826;23;20131;-89
2022/12/01 00:18:51;;;;;;;48.20;19.33;;;;;;;4.62;100.00;102586.22;5014107;28;20121;-89
2022/12/01 00:21:18;;;;;;;52.70;20.05;;;;;;;4.63;100.00;102584.41;5013276;28;20026;-88
2022/12/01 00:23:46;;;;;;;51.55;20.15;;;;;;;4.65;100.00;102583.22;5011136;28;20033;-88
2022/12/01 00:26:12;;;;;;;53.47;19.98;;;;;;;4.66;100.00;102587.53;5014215;28;20029;-88
2022/12/01 00:28:37;;;;;;;58.50;20.40;;;;;;;4.61;100.00;102576.59;5014802;28;20040;-89
2022/12/01 00:31:10;;;;;;;48.92;18.85;;;;;;;4.65;100.00;102583.22;5014099;28;20026;-89
2022/12/01 00:33:36;;;;;;;51.40;17.95;;;;;;;4.64;100.00;102586.88;5014176;28;20022;-89
2022/12/01 00:36:03;;;;;;;54.97;19.63;;;;;;;4.62;100.00;102583.56;5013514;28;20052;-88
2022/12/01 00:38:28;;;;;;;58.17;20.15;;;;;;;4.62;100.00;102585.41;5012831;28;20030;-89
2022/12/01 00:40:53;;;;;;;57.43;19.53;;;;;;;4.64;100.00;102591.38;5013594;28;20097;-89
2022/12/01 00:43:19;;;;;;;61.83;21.07;;;;;;;4.62;100.00;102586.22;5014207;28;20283;-89
2022/12/01 00:45:44;;;;;;;56.90;21.03;;;;;;;4.61;100.00;102586.41;5013612;28;20075;-88
2022/12/01 00:48:09;;;;;;;51.20;20.60;;;;;;;4.58;100.00;102584.09;5013763;28;20060;-88
2022/12/01 00:50:35;;;;;;;62.23;20.50;;;;;;;4.58;100.00;102587.56;5015473;28;20038;-89
2022/12/01 00:53:00;;;;;;;60.43;20.50;;;;;;;4.60;100.00;102582.91;5012413;28;20030;-89
2022/12/01 00:55:25;;;;;;;57.90;19.65;;;;;;;4.61;100.00;102586.41;5012187;28;20033;-89
2022/12/01 00:57:51;;;;;;;61.47;20.40;;;;;;;4.61;100.00;102592.53;5036774;23;20057;-88
2022/12/01 01:00:16;;;;;;;61.33;20.73;;;;;;;4.63;100.00;102587.06;5012815;28;20474;-89
2022/12/01 01:02:42;;;;;;;63.70;20.37;;;;;;;4.61;100.00;102584.56;5013462;28;20022;-89
2022/12/01 01:05:07;;;;;;;69.55;21.50;;;;;;;4.63;100.00;102585.22;5013176;28;20060;-88
2022/12/01 01:07:32;;;;;;;61.50;20.30;;;;;;;4.63;100.00;102590.53;5017824;23;20074;-89
2022/12/01 01:09:58;;;;;;;65.43;21.10;;;;;;;4.64;100.00;102592.19;4996743;28;20034;-88
2022/12/01 01:12:23;;;;;;;65.87;19.93;;;;;;;4.66;100.00;102589.34;4995574;28;20066;-89
2022/12/01 01:14:48;;;;;;;59.60;19.53;;;;;;;4.67;100.00;102594.50;5004329;28;20034;-88
2022/12/01 01:17:14;;;;;;;64.20;19.57;;;;;;;4.64;100.00;102592.19;5013843;28;20034;-88
2022/12/01 01:19:39;;;;;;;61.57;19.03;;;;;;;4.61;100.00;102597.03;5011691;28;20341;-88
2022/12/01 01:22:04;;;;;;;64.30;20.23;;;;;;;4.63;100.00;102603.81;5015631;28;20092;-88
2022/12/01 01:24:29;;;;;;;65.23;21.30;;;;;;;4.65;100.00;102608.97;5014007;28;20473;-87
2022/12/01 01:26:55;;;;;;;69.27;21.63;;;;;;;4.61;100.00;102603.16;5015267;28;20033;-89
2022/12/01 01:29:21;;;;;;;66.43;20.53;;;;;;;4.63;100.00;102611.78;5000379;28;20042;-88
2022/12/01 01:31:46;;;;;;;70.80;20.95;;;;;;;4.62;100.00;102610.13;4992713;28;20073;-88
2022/12/01 01:34:11;;;;;;;66.37;21.40;;;;;;;4.62;100.00;102610.13;4994081;28;20117;-88
2022/12/01 01:36:44;;;;;;;63.57;20.07;;;;;;;4.61;100.00;102607.66;4993594;28;20022;-88
2022/12/01 01:39:09;;;;;;;68.45;20.77;;;;;;;4.64;100.00;102620.59;4994347;28;20141;-88
2022/12/01 01:41:35;;;;;;;67.13;21.07;;;;;;;4.59;100.00;102623.72;4996661;28;20061;-88
2022/12/01 01:44:01;;;;;;;64.17;20.87;;;;;;;4.59;100.00;102625.56;5003145;28;20371;-88
2022/12/01 01:46:31;;;;;;;62.30;20.95;;;;;;;4.61;100.00;102618.28;5001579;28;20030;-88
2022/12/01 01:49:00;;;;;;;58.20;18.95;;;;;;;4.61;100.00;102620.94;5004026;28;20036;-88
2022/12/01 01:51:35;;;;;;;57.28;19.88;;;;;;;4.60;100.00;102617.44;5012546;28;20505;-88
2022/12/01 01:54:06;;;;;;;65.15;20.73;;;;;;;4.61;100.00;102620.94;5013350;28;20030;-87
2022/12/01 01:56:33;;;;;;;57.50;20.37;;;;;;;4.59;100.00;102623.72;5013240;28;20038;-88
2022/12/01 01:59:00;;;;;;;66.77;20.73;;;;;;;4.61;100.00;102618.28;5009285;28;20329;-87
2022/12/01 02:01:25;;;;;;;55.42;19.58;;;;;;;4.57;100.00;102617.78;5012571;28;20049;-88
2022/12/01 02:03:53;;;;;;;58.43;19.57;;;;;;;4.57;100.00;102625.72;5000140;28;20038;-88
2022/12/01 02:06:20;;;;;;;60.97;19.30;;;;;;;4.56;100.00;102621.44;5000566;28;20030;-88
2022/12/01 02:08:46;;;;;;;65.90;19.95;;;;;;;4.55;100.00;102614.50;4992775;28;20110;-88
2022/12/01 02:11:55;;;;;;;58.70;20.13;;;;;;;4.56;100.00;102616.16;4992635;28;20125;-88
2022/12/01 02:14:57;;;;;;;57.45;18.38;;;;;;;4.58;100.00;102618.59;5004753;28;20156;-88
2022/12/01 02:17:46;;;;;;;63.15;19.88;;;;;;;4.57;100.00;102615.13;4997147;28;20041;-88
2022/12/01 02:20:34;;;;;;;60.40;18.92;;;;;;;4.57;100.00;102620.44;4991944;28;20045;-88
2022/12/01 02:23:29;;;;;;;59.03;20.02;;;;;;;4.55;100.00;102614.50;4995252;28;20085;-87
2022/12/01 02:26:21;;;;;;;63.20;20.97;;;;;;;4.55;100.00;102617.94;4999823;28;20026;-88
2022/12/01 02:29:24;;;;;;;59.60;19.30;;;;;;;4.53;100.00;102614.63;5010272;28;20297;-89
2022/12/01 02:32:31;;;;;;;66.18;20.08;;;;;;;4.51;100.00;102619.28;5012274;28;20038;-88
2022/12/01 02:35:21;;;;;;;62.97;19.92;;;;;;;4.51;100.00;102619.28;4996290;28;20022;-88
2022/12/01 02:37:58;;;;;;;58.50;18.73;;;;;;;4.50;100.00;102625.59;4996319;28;20019;-87
2022/12/01 02:40:29;;;;;;;63.83;19.38;;;;;;;4.47;100.00;102618.00;4996037;28;20054;-88
2022/12/01 02:43:08;;;;;;;65.50;20.83;;;;;;;4.46;100.00;102616.34;4999779;28;20037;-88
2022/12/01 02:45:47;;;;;;;59.83;18.70;;;;;;;4.50;100.00;102625.59;5007307;28;20022;-87
2022/12/01 02:48:23;;;;;;;64.43;20.00;;;;;;;4.45;100.00;102614.69;4994949;28;20478;-87
2022/12/01 02:50:50;;;;;;;66.67;21.00;;;;;;;4.51;100.00;102621.13;4992095;28;20296;-88
2022/12/01 02:53:17;;;;;;;65.85;20.40;;;;;;;4.49;100.00;102621.28;4987756;28;20122;-88
2022/12/01 02:55:54;;;;;;;67.60;20.30;;;;;;;4.49;100.00;102620.47;4995696;28;20026;-88
2022/12/01 02:58:20;;;;;;;64.18;19.90;;;;;;;4.52;100.00;102625.44;4995719;28;20041;-88
2022/12/01 03:01:11;;;;;;;60.92;19.27;;;;;;;4.52;100.00;102628.91;4993723;28;20058;-88
2022/12/01 03:03:59;;;;;;;74.30;20.48;;;;;;;4.53;100.00;102627.91;4998389;28;20026;-88
2022/12/01 03:06:45;;;;;;;70.25;21.92;;;;;;;4.54;100.00;102628.75;5005772;28;20026;-87
2022/12/01 03:09:25;;;;;;;66.67;21.07;;;;;;;4.54;100.00;102620.78;5026817;28;20023;-88
2022/12/01 03:12:08;;;;;;;63.88;22.00;;;;;;;4.55;100.00;102623.25;5002777;28;20048;-87
2022/12/01 03:14:53;;;;;;;67.80;20.70;;;;;;;4.56;100.00;102624.09;5013521;28;20054;-87
2022/12/01 03:17:26;;;;;;;64.80;19.88;;;;;;;4.57;100.00;102624.91;4991241;28;20375;-88
2022/12/01 03:20:07;;;;;;;62.05;21.92;;;;;;;4.54;100.00;102628.75;4990653;28;20361;-88
2022/12/01 03:22:40;;;;;;;66.65;22.08;;;;;;;4.52;100.00;102626.25;4991993;28;20091;-88
2022/12/01 03:25:08;;;;;;;68.45;21.42;;;;;;;4.52;100.00;102620.13;4992469;28;20489;-88
2022/12/01 03:27:39;;;;;;;73.23;21.57;;;;;;;4.52;100.00;102628.91;5011160;28;20080;-88
2022/12/01 03:30:09;;;;;;;64.63;21.40;;;;;;;4.52;100.00;102622.78;5010961;28;20440;-88
2022/12/01 03:33:03;;;;;;;64.05;19.70;;;;;;;4.52;100.00;102622.78;5011284;28;20072;-88
2022/12/01 03:35:36;;;;;;;62.53;21.98;;;;;;;4.52;100.00;102625.44;4998774;28;20106;-88
2022/12/01 03:38:09;;;;;;;65.07;20.95;;;;;;;4.48;100.00;102624.13;4998515;28;20034;-88
2022/12/01 03:40:37;;;;;;;62.15;20.67;;;;;;;4.47;100.00;102618.00;4996187;28;20494;-88
2022/12/01 03:43:07;;;;;;;61.57;20.90;;;;;;;4.49;100.00;102618.63;4996321;28;20026;-88
2022/12/01 03:45:58;;;;;;;64.57;21.50;;;;;;;4.49;100.00;102620.47;4998246;28;20289;-88
2022/12/01 03:48:25;;;;;;;61.78;21.15;;;;;;;4.46;100.00;102619.00;4986946;28;20109;-87
2022/12/01 03:51:00;;;;;;;59.83;20.65;;;;;;;4.49;100.00;102620.47;5012457;28;20478;-87
2022/12/01 03:53:31;;;;;;;60.03;21.30;;;;;;;4.47;100.00;102620.66;5005542;28;20037;-88
2022/12/01 03:56:01;;;;;;;63.97;20.67;;;;;;;4.52;100.00;102625.44;5006729;28;20038;-87
2022/12/01 03:58:35;;;;;;;57.22;18.40;;;;;;;4.46;100.00;102615.50;5009842;28;20112;-87
2022/12/01 04:01:02;;;;;;;54.40;21.23;;;;;;;4.48;100.00;102626.78;4994423;28;20109;-88
2022/12/01 04:03:28;;;;;;;59.33;20.47;;;;;;;4.48;100.00;102630.25;4994740;28;20534;-87
2022/12/01 04:05:53;;;;;;;63.20;20.83;;;;;;;4.48;100.00;102632.09;5005337;28;20285;-87
2022/12/01 04:08:19;;;;;;;58.20;19.93;;;;;;;4.48;100.00;102634.75;5014711;28;20104;-87
2022/12/01 04:10:44;;;;;;;63.17;20.95;;;;;;;4.50;100.00;102638.06;4994375;28;20034;-87
2022/12/01 04:13:20;;;;;;;54.43;20.23;;;;;;;4.49;100.00;102628.44;4994691;28;20018;-87
2022/12/01 04:15:46;;;;;;;57.70;19.92;;;;;;;4.48;100.00;102635.56;5003378;28;20504;-87
2022/12/01 04:18:11;;;;;;;59.00;20.13;;;;;;;4.46;100.00;102632.28;5008820;28;20030;-88
2022/12/01 04:20:37;;;;;;;59.57;20.03;;;;;;;4.50;100.00;102636.22;4994318;28;20393;-88
2022/12/01 04:23:02;;;;;;;54.87;19.23;;;;;;;4.49;100.00;102629.25;4994503;28;20041;-88
2022/12/01 04:25:27;;;;;;;58.05;20.23;;;;;;;4.48;100.00;102626.78;4994873;28;20035;-89
2022/12/01 04:27:52;;;;;;;54.10;19.23;;;;;;;4.49;100.00;102633.75;4994329;28;20378;-88
2022/12/01 04:30:18;;;;;;;54.10;19.50;;;;;;;4.48;100.00;102627.59;4993401;28;20030;-88
2022/12/01 04:32:43;;;;;;;49.10;18.87;;;;;;;4.50;100.00;102632.75;4994545;28;20105;-88
2022/12/01 04:35:10;;;;;;;56.00;19.90;;;;;;;4.48;100.00;102626.78;4992569;28;20436;-87
2022/12/01 04:37:35;;;;;;;55.63;19.27;;;;;;;4.50;100.00;102622.13;5001180;28;20030;-88
2022/12/01 04:40:20;;;;;;;57.10;20.17;;;;;;;4.50;100.00;102624.78;5013112;28;20091;-88
2022/12/01 04:42:45;;;;;;;58.17;20.73;;;;;;;4.47;100.00;102630.44;5014140;28;20049;-87
2022/12/01 04:45:11;;;;;;;59.83;20.80;;;;;;;4.44;100.00;102622.81;5014523;28;20068;-87
2022/12/01 04:47:36;;;;;;;60.00;20.50;;;;;;;4.44;100.00;102623.66;5012087;28;20026;-88
2022/12/01 04:50:01;;;;;;;55.90;20.52;;;;;;;4.44;100.00;102615.69;5013732;28;20394;-88
2022/12/01 04:52:26;;;;;;;55.60;18.27;;;;;;;4.43;100.00;102627.31;5000885;28;20152;-88
2022/12/01 04:54:52;;;;;;;57.17;20.63;;;;;;;4.44;100.00;102630.78;4994190;28;20072;-88
2022/12/01 04:57:17;;;;;;;56.37;19.80;;;;;;;4.43;100.00;102629.13;4993168;28;20038;-88
2022/12/01 04:59:42;;;;;;;54.43;19.83;;;;;;;4.42;100.00;102628.31;4992661;28;20030;-88
2022/12/01 05:02:07;;;;;;;52.70;19.00;;;;;;;4.42;100.00;102627.47;4992614;28;20485;-87
2022/12/01 05:04:37;;;;;;;58.80;19.90;;;;;;;4.42;100.00;102630.13;5013907;28;20034;-88
2022/12/01 05:07:02;;;;;;;56.88;19.15;;;;;;;4.42;100.00;102623.00;5012989;28;20092;-88
2022/12/01 05:09:27;;;;;;;52.30;19.77;;;;;;;4.40;100.00;102615.19;4995597;28;20034;-87
2022/12/01 05:11:53;;;;;;;52.67;19.93;;;;;;;4.40;100.00;102625.81;4993587;28;20034;-87
2022/12/01 05:14:18;;;;;;;53.87;18.63;;;;;;;4.38;100.00;102624.34;4993517;28;20026;-87
2022/12/01 05:16:43;;;;;;;58.35;20.35;;;;;;;4.39;100.00;102624.16;4993358;28;20058;-88
2022/12/01 05:21:52;;;;;;;56.37;19.67;;;;;;;4.38;100.00;102622.50;5002670;28;20073;-87
2022/12/01 05:24:19;;;;;;;50.53;18.67;;;;;;;4.38;100.00;102625.16;5010096;28;20756;-87
2022/12/01 05:26:45;;;;;;;56.30;19.60;;;;;;;4.38;100.00;102627.00;4992709;28;20049;-88
2022/12/01 05:29:11;;;;;;;51.30;19.60;;;;;;;4.35;100.00;102624.69;4993606;28;20026;-88
2022/12/01 05:31:38;;;;;;;57.90;20.83;;;;;;;4.38;100.00;102622.50;4993285;28;20030;-88
2022/12/01 05:34:03;;;;;;;55.17;19.80;;;;;;;4.39;100.00;102633.94;4991756;28;20277;-88
2022/12/01 05:36:28;;;;;;;48.53;19.35;;;;;;;4.40;100.00;102628.47;5010440;28;20028;-87
2022/12/01 05:38:54;;;;;;;49.37;19.03;;;;;;;4.41;100.00;102639.94;5013275;28;20030;-88
2022/12/01 05:41:19;;;;;;;53.73;18.90;;;;;;;4.38;100.00;102630.47;5009701;28;20033;-88
2022/12/01 05:43:45;;;;;;;52.17;19.33;;;;;;;4.37;100.00;102633.28;4993149;28;20053;-88
2022/12/01 05:46:11;;;;;;;55.63;19.30;;;;;;;4.38;100.00;102633.13;4993621;28;20034;-88
2022/12/01 05:48:36;;;;;;;52.85;18.70;;;;;;;4.37;100.00;102634.13;4995738;28;20029;-88
2022/12/01 05:51:10;;;;;;;54.70;20.27;;;;;;;4.38;100.00;102635.75;5000105;28;20414;-88
2022/12/01 05:53:35;;;;;;;53.05;20.25;;;;;;;4.36;100.00;102636.94;4992095;28;20027;-88
2022/12/01 05:56:03;;;;;;;58.87;20.03;;;;;;;4.35;100.00;102628.16;4993242;28;20382;-87
2022/12/01 05:58:28;;;;;;;55.38;19.98;;;;;;;4.35;100.00;102628.16;4991403;28;20032;-87
2022/12/01 06:00:53;;;;;;;51.87;19.30;;;;;;;4.37;100.00;102639.44;4991293;28;20026;-86
2022/12/01 06:03:19;;;;;;;48.63;17.60;;;;;;;4.37;100.00;102636.78;4992507;28;20062;-86
2022/12/01 06:05:46;;;;;;;52.23;19.57;;;;;;;4.36;100.00;102634.28;5003995;28;20304;-87
2022/12/01 06:08:12;;;;;;;53.33;19.30;;;;;;;4.36;100.00;102642.25;5008270;28;20499;-87
2022/12/01 06:10:37;;;;;;;60.50;20.10;;;;;;;4.36;100.00;102643.09;5011799;28;20372;-87
2022/12/01 06:13:02;;;;;;;52.07;19.50;;;;;;;4.36;100.00;102643.09;5012037;28;20029;-86
2022/12/01 06:15:28;;;;;;;57.83;20.33;;;;;;;4.34;100.00;102639.78;4995183;28;20034;-90
2022/12/01 06:17:53;;;;;;;53.43;19.50;;;;;;;4.31;100.00;102637.47;5007048;28;20013;-88
2022/12/01 06:20:19;;;;;;;55.33;19.83;;;;;;;4.32;100.00;102643.59;4996551;28;20355;-89
2022/12/01 06:22:44;;;;;;;51.30;16.93;;;;;;;4.33;100.00;102639.94;4993741;28;20029;-88
2022/12/01 06:25:09;;;;;;;56.27;19.60;;;;;;;4.31;100.00;102631.31;4994844;28;20034;-91
2022/12/01 06:27:35;;;;;;;57.00;20.27;;;;;;;4.31;100.00;102632.16;4988688;28;20026;-92
2022/12/01 06:30:00;;;;;;;56.38;19.40;;;;;;;4.28;100.00;102637.81;4992305;28;20032;-91
2022/12/01 06:32:26;;;;;;;60.83;20.50;;;;;;;4.26;100.00;102637.16;4989439;28;20027;-89
2022/12/01 06:34:51;;;;;;;53.57;20.17;;;;;;;4.27;100.00;102643.28;4990907;28;20054;-86
2022/12/01 06:37:16;;;;;;;53.80;18.93;;;;;;;4.25;100.00;102638.16;4993051;28;20018;-90
2022/12/01 06:39:42;;;;;;;54.83;20.38;;;;;;;4.26;100.00;102647.75;4992565;28;20053;-88
2022/12/01 06:42:08;;;;;;;53.20;19.47;;;;;;;4.30;100.00;102645.59;4996662;28;20034;-88
2022/12/01 06:44:33;;;;;;;57.45;21.02;;;;;;;4.27;100.00;102648.59;5003018;28;20030;-89
2022/12/01 06:47:42;;;;;;;55.67;18.37;;;;;;;4.19;100.00;102644.97;5039374;23;20056;-90
2022/12/01 06:50:09;;;;;;;61.08;20.20;;;;;;;4.20;100.00;102643.16;5007784;28;20042;-89
2022/12/01 06:52:35;;;;;;;54.20;19.70;;;;;;;4.26;100.00;102653.06;4995477;28;20045;-88
2022/12/01 06:55:02;;;;;;;53.83;20.57;;;;;;;4.26;100.00;102657.56;5011706;28;20014;-88
2022/12/01 06:57:28;;;;;;;55.92;18.98;;;;;;;4.27;100.00;102662.69;5011364;28;20022;-88
2022/12/01 06:59:53;;;;;;;56.90;18.42;;;;;;;4.29;100.00;102675.81;5008727;28;20030;-88
2022/12/01 07:02:19;;;;;;;57.77;20.53;;;;;;;4.30;100.00;102669.47;5007727;28;20422;-88
2022/12/01 07:04:44;;;;;;;54.50;18.73;;;;;;;4.29;100.00;102681.13;5008263;28;20060;-88
2022/12/01 07:07:11;;;;;;;51.83;18.33;;;;;;;4.29;100.00;102678.47;5003253;28;20029;-88
2022/12/01 07:09:36;;;;;;;55.35;18.17;;;;;;;4.29;100.00;102681.94;5008941;28;20041;-88
2022/12/01 07:12:01;;;;;;;48.37;19.03;;;;;;;4.30;100.00;102685.41;5009584;28;20045;-88
2022/12/01 07:14:27;;;;;;;58.15;18.83;;;;;;;4.29;100.00;102687.22;5010615;28;20026;-88
2022/12/01 07:16:52;;;;;;;50.43;17.87;;;;;;;4.31;100.00;102693.22;5004113;28;20367;-88
2022/12/01 07:19:18;;;;;;;53.13;17.73;;;;;;;4.30;100.00;102688.06;5005724;28;20033;-88
2022/12/01 07:21:43;;;;;;;53.03;19.30;;;;;;;4.30;100.00;102688.91;4999650;28;20044;-87
2022/12/01 07:24:11;;;;;;;51.87;17.57;;;;;;;4.33;100.00;102693.88;4997005;28;20101;-87
2022/12/01 07:26:37;;;;;;;59.63;19.40;;;;;;;4.31;100.00;102687.91;5005564;28;20532;-88
2022/12/01 07:29:02;;;;;;;55.58;19.75;;;;;;;4.34;100.00;102687.56;5001697;28;20074;-88
2022/12/01 07:31:27;;;;;;;56.87;18.80;;;;;;;4.36;100.00;102696.19;5009577;28;20044;-93
2022/12/01 07:33:52;;;;;;;55.63;18.97;;;;;;;4.32;100.00;102694.88;5012092;28;20037;-91
2022/12/01 07:36:18;;;;;;;52.67;19.80;;;;;;;4.39;100.00;102695.00;5010689;28;20505;-92
2022/12/01 07:38:43;;;;;;;50.57;18.53;;;;;;;4.39;100.00;102701.13;5010982;28;20025;-92
2022/12/01 07:41:14;;;;;;;52.97;18.70;;;;;;;4.39;100.00;102693.16;5020421;28;20117;-92
2022/12/01 07:43:40;;;;;;;55.20;18.33;;;;;;;4.42;100.00;102693.81;5023184;28;20097;-91
2022/12/01 07:46:11;;;;;;;54.75;19.02;;;;;;;4.41;100.00;102693.00;5012354;28;20101;-89
2022/12/01 07:48:38;;;;;;;57.17;19.15;;;;;;;4.42;100.00;102704.44;5021845;28;20033;-94
2022/12/01 07:51:04;;;;;;;58.90;19.45;;;;;;;4.43;100.00;102701.63;5024326;28;20033;-94
2022/12/01 07:53:30;;;;;;;60.03;20.10;;;;;;;4.47;100.00;102704.78;5028264;28;20054;-94
2022/12/01 07:55:57;;;;;;;60.37;19.70;;;;;;;4.47;100.00;102702.97;5026323;28;20018;-92
2022/12/01 07:58:22;;;;;;;59.28;20.00;;;;;;;4.48;100.00;102703.78;5020261;28;20030;-92
2022/12/01 08:00:47;;;;;;;57.47;19.67;;;;;;;4.49;100.00;102700.13;5013763;28;20061;-95
2022/12/01 08:03:13;;;;;;;58.20;19.63;;;;;;;4.49;100.00;102708.09;5012538;28;20033;-94
2022/12/01 08:05:38;;;;;;;58.97;20.05;;;;;;;4.50;100.00;102707.09;5014848;28;20090;-92
2022/12/01 08:08:04;;;;;;;59.43;19.83;;;;;;;4.51;100.00;102706.91;5014717;28;20022;-92
2022/12/01 08:10:29;;;;;;;57.50;18.93;;;;;;;4.52;100.00;102705.09;5012993;28;20402;-91
2022/12/01 08:12:55;;;;;;;60.20;19.98;;;;;;;4.55;100.00;102720.69;5017240;28;20076;-91
2022/12/01 08:15:20;;;;;;;59.60;20.87;;;;;;;4.59;100.00;102726.47;5011437;28;20026;-93
2022/12/01 08:17:45;;;;;;;50.23;18.30;;;;;;;4.62;100.00;102721.66;5003328;28;20026;-93
2022/12/01 08:20:11;;;;;;;57.75;20.17;;;;;;;4.65;100.00;102721.31;5010567;28;20061;-95
2022/12/01 08:22:37;;;;;;;54.17;19.87;;;;;;;4.65;100.00;102731.94;5030346;28;20033;-95
2022/12/01 08:25:02;;;;;;;57.90;20.73;;;;;;;4.67;100.00;102719.31;5034707;28;20017;-95
2022/12/01 08:27:28;;;;;;;53.72;20.83;;;;;;;4.66;100.00;102719.47;5029179;28;20038;-95
2022/12/01 08:29:53;;;;;;;50.93;20.80;;;;;;;4.70;100.00;102724.28;5018970;28;20033;-91
2022/12/01 08:32:18;;;;;;;54.30;20.00;;;;;;;4.70;100.00;102729.59;5012750;28;20050;-92
2022/12/01 08:34:43;;;;;;;48.40;20.30;;;;;;;4.70;100.00;102724.28;5014918;28;20034;-92
2022/12/01 08:37:09;;;;;;;57.00;21.85;;;;;;;4.72;100.00;102724.09;5015870;28;20044;-92
2022/12/01 08:39:34;;;;;;;50.93;20.50;;;;;;;4.76;100.00;102735.19;5019864;28;20025;-92
2022/12/01 08:42:00;;;;;;;52.13;19.80;;;;;;;4.78;100.00;102731.41;5013920;28;20410;-91
2022/12/01 08:44:26;;;;;;;52.45;19.90;;;;;;;4.79;100.00;102733.06;5013436;28;20096;-93
2022/12/01 08:46:51;;;;;;;54.07;20.40;;;;;;;4.83;100.00;102733.53;5014478;28;20029;-92
2022/12/01 08:49:16;;;;;;;51.97;21.20;;;;;;;4.88;100.00;102731.19;5013487;28;20030;-93
2022/12/01 08:51:42;;;;;;;51.97;19.20;;;;;;;4.92;100.00;102732.50;5009901;28;20032;-91
2022/12/01 08:54:09;;;;;;;50.80;19.83;;;;;;;4.96;100.00;102735.63;5014688;28;20026;-91
2022/12/01 08:56:41;;;;;;;48.20;19.50;;;;;;;4.99;100.00;102737.94;5013743;28;20053;-92
2022/12/01 08:59:07;;;;;;;51.83;19.75;;;;;;;5.08;100.00;102738.75;4998111;28;20449;-92
2022/12/01 09:01:33;;;;;;;51.35;19.70;;;;;;;5.12;100.00;102726.75;5013799;28;20057;-92
2022/12/01 09:04:04;;;;;;;52.20;19.43;;;;;;;5.18;100.00;102736.69;5013699;28;20029;-91
2022/12/01 09:06:36;;;;;;;48.05;19.65;;;;;;;5.18;100.00;102736.69;5014262;28;20061;-92
2022/12/01 09:09:01;;;;;;;54.17;21.33;;;;;;;5.19;100.00;102733.03;5014554;28;20022;-93
2022/12/01 09:11:27;;;;;;;49.63;19.20;;;;;;;5.21;100.00;102736.34;5011103;28;20057;-92
2022/12/01 09:13:52;;;;;;;50.03;19.97;;;;;;;5.27;100.00;102733.00;5010091;28;20030;-91
2022/12/01 09:16:18;;;;;;;47.00;19.20;;;;;;;5.26;100.00;102726.00;5014975;28;20545;-90
2022/12/01 09:18:45;;;;;;;49.13;19.37;;;;;;;5.35;100.00;102728.59;5012471;28;20030;-90
2022/12/01 09:21:12;;;;;;;50.53;19.15;;;;;;;5.43;100.00;102736.53;5012308;28;20038;-91
2022/12/01 09:23:38;;;;;;;47.42;18.52;;;;;;;5.54;100.00;102736.13;5015116;28;20057;-89
2022/12/01 09:26:04;;;;;;;48.70;20.33;;;;;;;5.55;100.00;102740.44;5016162;28;20030;-89
2022/12/01 09:28:29;;;;;;;46.92;18.98;;;;;;;5.61;100.00;102747.72;5017787;28;20030;-90
2022/12/01 09:30:55;;;;;;;49.27;19.50;;;;;;;5.64;100.00;102735.91;5015598;28;20033;-88
2022/12/01 09:33:20;;;;;;;45.60;18.15;;;;;;;5.66;100.00;102741.06;5034970;28;20045;-89
2022/12/01 09:35:46;;;;;;;52.77;19.57;;;;;;;5.64;100.00;102737.75;5035745;28;20041;-89
2022/12/01 09:38:11;;;;;;;51.47;18.93;;;;;;;5.67;100.00;102743.53;5031062;28;20375;-88
2022/12/01 09:40:40;;;;;;;50.10;20.20;;;;;;;5.70;100.00;102755.63;5010190;28;20034;-89
2022/12/01 09:43:15;;;;;;;50.05;20.17;;;;;;;5.73;100.00;102749.97;4997251;28;20710;-90
2022/12/01 09:45:46;;;;;;;46.83;19.50;;;;;;;5.78;100.00;102758.25;5013299;28;20030;-92
2022/12/01 09:48:24;;;;;;;56.38;21.02;;;;;;;5.83;100.00;102747.06;5014135;28;20180;-95
2022/12/01 09:50:49;;;;;;;51.25;19.95;;;;;;;5.86;100.00;102742.19;5013447;28;20060;-92
2022/12/01 09:53:21;;;;;;;50.07;20.03;;;;;;;5.84;100.00;102744.22;5014211;28;20022;-93
2022/12/01 09:55:48;;;;;;;46.97;18.75;;;;;;;5.81;100.00;102749.91;5015146;28;20050;-94
2022/12/01 09:58:18;;;;;;;49.50;19.45;;;;;;;5.80;100.00;102750.06;5018292;28;20030;-96
2022/12/01 10:00:45;;;;;;;49.60;19.37;;;;;;;5.80;100.00;102748.25;5012987;28;20053;-94
2022/12/01 10:03:32;;;;;;;52.22;19.50;;;;;;;5.79;100.00;102743.94;5032186;28;20026;-94
2022/12/01 10:06:03;;;;;;;48.60;20.55;;;;;;;5.73;100.00;102744.63;5036779;28;20046;-94
2022/12/01 10:08:33;;;;;;;48.78;19.77;;;;;;;5.73;100.00;102729.53;5036514;28;20072;-93
2022/12/01 10:11:21;;;;;;;50.15;20.60;;;;;;;5.72;100.00;102735.84;5032922;28;20049;-93
2022/12/01 10:13:46;;;;;;;52.97;21.08;;;;;;;5.72;100.00;102740.31;5031888;28;20034;-94
2022/12/01 10:16:19;;;;;;;48.70;19.13;;;;;;;5.74;100.00;102743.63;5012245;28;20022;-93
2022/12/01 10:18:57;;;;;;;53.33;19.33;;;;;;;5.83;100.00;102739.06;5016372;28;20333;-92
2022/12/01 10:21:49;;;;;;;53.67;20.67;;;;;;;5.91;100.00;102731.84;5013385;28;20473;-92
2022/12/01 10:24:40;;;;;;;53.35;20.40;;;;;;;5.99;100.00;102732.81;5013930;28;20026;-91
2022/12/01 10:27:32;;;;;;;56.93;19.73;;;;;;;6.03;100.00;102726.13;4997024;28;20040;-94
2022/12/01 10:30:07;;;;;;;47.67;19.05;;;;;;;6.11;100.00;102720.72;5013070;28;20108;-94
2022/12/01 10:33:02;;;;;;;52.70;20.30;;;;;;;6.20;100.00;102724.97;5015109;28;20040;-93
2022/12/01 10:35:36;;;;;;;49.13;19.45;;;;;;;6.21;100.00;102715.97;5018849;28;20137;-94
2022/12/01 10:38:11;;;;;;;51.78;19.95;;;;;;;6.31;100.00;102720.22;5023990;28;20026;-93
2022/12/01 10:40:36;;;;;;;54.13;20.30;;;;;;;6.41;100.00;102719.94;5014449;28;20029;-93
2022/12/01 10:43:02;;;;;;;53.73;19.83;;;;;;;6.43;100.00;102718.72;5012709;28;20026;-94
2022/12/01 10:45:31;;;;;;;53.83;20.80;;;;;;;6.48;100.00;102713.69;5012433;28;20037;-94
2022/12/01 10:48:14;;;;;;;48.75;19.70;;;;;;;6.51;100.00;102713.34;5011674;28;20490;-96
2022/12/01 10:51:12;;;;;;;44.17;18.63;;;;;;;6.55;100.00;102707.63;5012594;28;20038;-94
2022/12/01 10:53:37;;;;;;;49.08;20.48;;;;;;;6.44;100.00;102712.41;5013878;28;20034;-95
2022/12/01 10:56:08;;;;;;;43.57;18.33;;;;;;;6.45;100.00;102708.72;5013805;28;20080;-94
2022/12/01 10:58:44;;;;;;;51.47;19.98;;;;;;;6.42;100.00;102700.28;5013078;28;20676;-94
2022/12/01 11:01:26;;;;;;;52.77;19.87;;;;;;;6.50;100.00;102701.03;5012227;28;20109;-96
2022/12/01 11:04:06;;;;;;;54.97;19.90;;;;;;;6.59;100.00;102704.41;5013792;28;20275;-95
2022/12/01 11:06:31;;;;;;;53.42;22.33;;;;;;;6.54;100.00;102704.13;5026363;28;20026;-95
2022/12/01 11:09:04;;;;;;;52.00;19.92;;;;;;;6.58;100.00;102699.25;5031497;28;20045;-95
2022/12/01 11:11:39;;;;;;;46.20;19.03;;;;;;;6.59;100.00;102696.44;5027119;28;20064;-94
2022/12/01 11:14:16;;;;;;;51.53;19.53;;;;;;;6.59;100.00;102696.44;5013930;28;20280;-95
2022/12/01 11:16:44;;;;;;;50.28;19.75;;;;;;;6.65;100.00;102705.50;5012224;28;20034;-94
2022/12/01 11:19:13;;;;;;;48.88;19.60;;;;;;;6.67;100.00;102696.31;5018383;28;20017;-95
2022/12/01 11:21:52;;;;;;;50.33;20.13;;;;;;;6.72;100.00;102695.78;5032684;28;20529;-94
2022/12/01 11:24:41;;;;;;;47.63;18.42;;;;;;;6.73;100.00;102697.44;5032498;28;20481;-95
2022/12/01 11:27:16;;;;;;;46.40;19.30;;;;;;;6.69;100.00;102693.47;5031188;28;20071;-95